createdAt,value
2022-08-26T00:01:53.932Z,100.00
2022-08-26T00:04:23.442Z,100.00
2022-08-26T00:06:51.249Z,100.00
2022-08-26T00:09:20.292Z,100.00
2022-08-26T00:11:48.686Z,100.00
2022-08-26T00:14:17.336Z,100.00
2022-08-26T00:16:48.171Z,100.00
2022-08-26T00:19:17.855Z,100.00
2022-08-26T00:21:46.044Z,100.00
2022-08-26T00:24:14.302Z,100.00
2022-08-26T00:26:43.752Z,100.00
2022-08-26T00:29:13.110Z,100.00
2022-08-26T00:31:40.955Z,100.00
2022-08-26T00:34:11.339Z,100.00
2022-08-26T00:36:41.369Z,100.00
2022-08-26T00:39:10.008Z,100.00
2022-08-26T00:41:40.031Z,100.00
2022-08-26T00:44:11.051Z,100.00
2022-08-26T00:46:46.615Z,100.00
2022-08-26T00:49:18.152Z,100.00
2022-08-26T00:51:50.483Z,100.00
2022-08-26T00:54:21.051Z,100.00
2022-08-26T00:56:56.035Z,100.00
2022-08-26T00:59:26.286Z,100.00
2022-08-26T01:01:54.375Z,100.00
2022-08-26T01:04:26.128Z,100.00
2022-08-26T01:06:55.094Z,100.00
2022-08-26T01:09:23.386Z,100.00
2022-08-26T01:11:53.733Z,100.00
2022-08-26T01:14:22.772Z,100.00
2022-08-26T01:16:52.279Z,100.00
2022-08-26T01:19:24.998Z,100.00
2022-08-26T01:21:57.218Z,100.00
2022-08-26T01:24:28.526Z,100.00
2022-08-26T01:26:58.976Z,100.00
2022-08-26T01:29:27.329Z,100.00
2022-08-26T01:31:57.033Z,100.00
2022-08-26T01:34:28.794Z,100.00
2022-08-26T01:37:06.892Z,100.00
2022-08-26T01:39:37.999Z,100.00
2022-08-26T01:42:14.674Z,100.00
2022-08-26T01:44:47.013Z,100.00
2022-08-26T01:47:18.519Z,100.00
2022-08-26T01:49:49.308Z,100.00
2022-08-26T01:52:23.882Z,100.00
2022-08-26T01:54:58.246Z,100.00
2022-08-26T01:57:27.973Z,100.00
2022-08-26T02:00:00.641Z,100.00
2022-08-26T02:02:29.032Z,100.00
2022-08-26T02:05:00.846Z,100.00
2022-08-26T02:07:29.745Z,100.00
2022-08-26T02:09:58.963Z,100.00
2022-08-26T02:12:27.421Z,100.00
2022-08-26T02:14:59.208Z,100.00
2022-08-26T02:17:31.193Z,100.00
2022-08-26T02:19:59.311Z,100.00
2022-08-26T02:22:27.030Z,100.00
2022-08-26T02:24:57.580Z,100.00
2022-08-26T02:27:32.109Z,100.00
2022-08-26T02:30:07.994Z,100.00
2022-08-26T02:32:35.836Z,100.00
2022-08-26T02:35:03.451Z,100.00
2022-08-26T02:37:32.449Z,100.00
2022-08-26T02:40:02.012Z,100.00
2022-08-26T02:42:32.437Z,100.00
2022-08-26T02:45:00.375Z,100.00
2022-08-26T02:47:28.991Z,100.00
2022-08-26T02:49:57.099Z,100.00
2022-08-26T02:52:25.364Z,100.00
2022-08-26T02:54:53.123Z,100.00
2022-08-26T02:57:22.203Z,100.00
2022-08-26T02:59:51.346Z,100.00
2022-08-26T03:02:19.195Z,100.00
2022-08-26T03:04:57.524Z,100.00
2022-08-26T03:07:28.501Z,100.00
2022-08-26T03:09:56.832Z,100.00
2022-08-26T03:12:25.643Z,100.00
2022-08-26T03:14:54.873Z,100.00
2022-08-26T03:17:22.630Z,100.00
2022-08-26T03:19:57.040Z,100.00
2022-08-26T03:22:25.884Z,100.00
2022-08-26T03:24:54.962Z,100.00
2022-08-26T03:27:22.621Z,100.00
2022-08-26T03:30:13.139Z,100.00
2022-08-26T03:32:44.494Z,100.00
2022-08-26T03:35:12.799Z,100.00
2022-08-26T03:37:41.642Z,100.00
2022-08-26T03:40:11.712Z,100.00
2022-08-26T03:42:40.950Z,100.00
2022-08-26T03:45:14.074Z,100.00
2022-08-26T03:47:44.570Z,100.00
2022-08-26T03:50:14.573Z,100.00
2022-08-26T03:52:44.059Z,100.00
2022-08-26T03:55:12.458Z,100.00
2022-08-26T03:57:40.101Z,100.00
2022-08-26T04:00:14.049Z,100.00
2022-08-26T04:02:51.129Z,100.00
2022-08-26T04:05:23.182Z,100.00
2022-08-26T04:07:51.158Z,100.00
2022-08-26T04:10:28.494Z,100.00
2022-08-26T04:12:58.732Z,100.00
2022-08-26T04:15:34.441Z,100.00
2022-08-26T04:18:03.426Z,100.00
2022-08-26T04:20:31.929Z,100.00
2022-08-26T04:22:59.622Z,100.00
2022-08-26T04:25:27.301Z,100.00
2022-08-26T04:27:55.412Z,100.00
2022-08-26T04:30:23.164Z,100.00
2022-08-26T04:32:51.777Z,100.00
2022-08-26T04:35:25.727Z,100.00
2022-08-26T04:37:54.383Z,100.00
2022-08-26T04:40:22.198Z,100.00
2022-08-26T04:42:50.229Z,100.00
2022-08-26T04:45:19.169Z,100.00
2022-08-26T04:47:54.406Z,100.00
2022-08-26T04:50:25.819Z,100.00
2022-08-26T04:52:55.021Z,100.00
2022-08-26T04:55:25.211Z,100.00
2022-08-26T04:58:08.813Z,100.00
2022-08-26T05:00:38.509Z,100.00
2022-08-26T05:03:07.267Z,100.00
2022-08-26T05:05:41.917Z,100.00
2022-08-26T05:08:11.402Z,100.00
2022-08-26T05:10:43.500Z,100.00
2022-08-26T05:13:14.233Z,100.00
2022-08-26T05:15:43.895Z,100.00
2022-08-26T05:18:12.019Z,100.00
2022-08-26T05:20:43.147Z,100.00
2022-08-26T05:23:10.914Z,100.00
2022-08-26T05:25:40.417Z,100.00
2022-08-26T05:28:08.054Z,100.00
2022-08-26T05:30:36.983Z,100.00
2022-08-26T05:33:05.823Z,100.00
2022-08-26T05:35:34.371Z,100.00
2022-08-26T05:38:06.556Z,100.00
2022-08-26T05:40:40.625Z,100.00
2022-08-26T05:43:10.564Z,100.00
2022-08-26T05:45:44.887Z,100.00
2022-08-26T05:48:16.126Z,100.00
2022-08-26T05:50:45.991Z,100.00
2022-08-26T05:53:18.100Z,100.00
2022-08-26T05:55:47.953Z,100.00
2022-08-26T05:58:17.436Z,100.00
2022-08-26T06:00:45.691Z,100.00
2022-08-26T06:03:13.530Z,100.00
2022-08-26T06:05:42.541Z,100.00
2022-08-26T06:08:19.426Z,100.00
2022-08-26T06:10:50.174Z,100.00
2022-08-26T06:13:20.229Z,99.02
2022-08-26T06:15:50.265Z,97.79
2022-08-26T06:18:20.236Z,97.56
2022-08-26T06:20:56.930Z,98.19
2022-08-26T06:23:45.010Z,99.89
2022-08-26T06:26:14.774Z,98.37
2022-08-26T06:28:45.310Z,96.89
2022-08-26T06:31:13.582Z,96.50
2022-08-26T06:33:41.316Z,93.61
2022-08-26T06:36:09.256Z,90.28
2022-08-26T06:38:37.564Z,90.82
2022-08-26T06:41:05.261Z,89.81
2022-08-26T06:43:35.215Z,88.74
2022-08-26T06:46:07.714Z,87.78
2022-08-26T06:48:38.910Z,87.04
2022-08-26T06:51:10.558Z,87.33
2022-08-26T06:53:41.194Z,86.82
2022-08-26T06:56:13.527Z,85.80
2022-08-26T06:58:45.280Z,83.61
2022-08-26T07:01:21.821Z,83.06
2022-08-26T07:03:53.261Z,80.95
2022-08-26T07:06:24.590Z,79.95
2022-08-26T07:09:01.891Z,80.47
2022-08-26T07:11:34.035Z,79.09
2022-08-26T07:14:05.615Z,78.49
2022-08-26T07:16:34.067Z,79.26
2022-08-26T07:19:11.103Z,78.62
2022-08-26T07:21:40.376Z,78.18
2022-08-26T07:24:08.685Z,75.80
2022-08-26T07:26:43.186Z,77.78
2022-08-26T07:29:12.701Z,75.67
2022-08-26T07:31:42.449Z,76.49
2022-08-26T07:34:10.787Z,75.99
2022-08-26T07:36:38.929Z,77.05
2022-08-26T07:39:07.240Z,76.16
2022-08-26T07:41:36.509Z,74.85
2022-08-26T07:44:04.724Z,77.77
2022-08-26T07:46:35.078Z,76.30
2022-08-26T07:49:02.835Z,75.58
2022-08-26T07:51:31.846Z,75.32
2022-08-26T07:53:59.599Z,77.39
2022-08-26T07:56:27.774Z,76.30
2022-08-26T07:58:55.858Z,76.31
2022-08-26T08:01:26.785Z,76.57
2022-08-26T08:03:56.271Z,75.97
2022-08-26T08:06:27.168Z,75.05
2022-08-26T08:08:56.093Z,75.55
2022-08-26T08:11:24.134Z,76.10
2022-08-26T08:13:56.511Z,76.64
2022-08-26T08:16:26.268Z,75.27
2022-08-26T08:18:54.399Z,76.03
2022-08-26T08:21:25.262Z,74.48
2022-08-26T08:23:54.242Z,76.36
2022-08-26T08:26:23.126Z,74.79
2022-08-26T08:28:51.271Z,76.45
2022-08-26T08:31:38.752Z,74.90
2022-08-26T08:34:08.101Z,75.43
2022-08-26T08:36:37.224Z,77.33
2022-08-26T08:39:06.496Z,78.03
2022-08-26T08:41:50.281Z,79.19
2022-08-26T08:44:21.381Z,78.85
2022-08-26T08:46:56.259Z,78.01
2022-08-26T08:49:26.116Z,75.81
2022-08-26T08:52:00.759Z,74.85
2022-08-26T08:54:29.118Z,75.75
2022-08-26T08:57:03.880Z,77.32
2022-08-26T08:59:34.865Z,75.06
2022-08-26T09:02:12.228Z,76.25
2022-08-26T09:05:00.299Z,76.16
2022-08-26T09:07:37.545Z,76.73
2022-08-26T09:10:18.819Z,76.00
2022-08-26T09:12:48.550Z,76.09
2022-08-26T09:15:20.305Z,75.63
2022-08-26T09:17:59.877Z,76.72
2022-08-26T09:20:49.453Z,78.18
2022-08-26T09:23:19.618Z,77.10
2022-08-26T09:25:50.394Z,78.76
2022-08-26T09:28:20.737Z,78.37
2022-08-26T09:31:01.426Z,79.01
2022-08-26T09:33:31.489Z,77.28
2022-08-26T09:36:14.970Z,77.84
2022-08-26T09:38:44.570Z,77.73
2022-08-26T09:41:31.678Z,77.59
2022-08-26T09:44:14.683Z,77.47
2022-08-26T09:46:47.218Z,76.86
2022-08-26T09:49:26.430Z,79.02
2022-08-26T09:52:19.289Z,79.15
2022-08-26T09:55:02.266Z,78.41
2022-08-26T09:57:34.267Z,78.05
2022-08-26T10:00:02.877Z,79.50
2022-08-26T10:02:38.724Z,78.73
2022-08-26T10:05:11.386Z,78.89
2022-08-26T10:07:43.471Z,78.92
2022-08-26T10:10:18.338Z,77.84
2022-08-26T10:12:54.535Z,76.33
2022-08-26T10:15:25.317Z,77.62
2022-08-26T10:17:59.628Z,75.29
2022-08-26T10:20:32.381Z,76.01
2022-08-26T10:23:05.347Z,75.80
2022-08-26T10:25:39.278Z,73.99
2022-08-26T10:28:13.705Z,73.90
2022-08-26T10:30:46.834Z,73.54
2022-08-26T10:33:18.132Z,74.46
2022-08-26T10:35:51.726Z,78.22
2022-08-26T10:38:23.785Z,80.01
2022-08-26T10:41:00.141Z,80.96
2022-08-26T10:43:31.537Z,84.34
2022-08-26T10:46:04.357Z,86.47
2022-08-26T10:48:40.036Z,89.00
2022-08-26T10:51:08.640Z,92.20
2022-08-26T10:53:44.550Z,94.36
2022-08-26T10:56:23.617Z,95.60
2022-08-26T10:59:02.818Z,94.71
2022-08-26T11:01:47.183Z,93.34
2022-08-26T11:04:48.101Z,94.18
2022-08-26T11:07:37.566Z,94.61
2022-08-26T11:10:25.038Z,94.64
2022-08-26T11:12:57.963Z,93.23
2022-08-26T11:16:09.371Z,92.76
2022-08-26T11:18:46.328Z,91.23
2022-08-26T11:21:47.778Z,86.49
2022-08-26T11:25:02.436Z,84.60
2022-08-26T11:28:01.449Z,85.24
2022-08-26T11:30:57.553Z,85.60
2022-08-26T11:33:59.947Z,84.48
2022-08-26T11:36:59.037Z,82.15
2022-08-26T11:39:30.653Z,80.60
2022-08-26T11:42:01.101Z,83.14
2022-08-26T11:44:38.926Z,84.77
2022-08-26T11:47:11.450Z,86.30
2022-08-26T11:49:39.801Z,86.73
2022-08-26T11:52:16.926Z,87.56
2022-08-26T11:55:00.472Z,87.32
2022-08-26T11:57:28.737Z,89.56
2022-08-26T11:59:58.490Z,95.21
2022-08-26T12:02:27.865Z,97.78
2022-08-26T12:04:56.748Z,99.72
2022-08-26T12:07:28.094Z,100.00
2022-08-26T12:09:59.034Z,100.00
2022-08-26T12:12:34.712Z,100.00
2022-08-26T12:15:17.065Z,100.00
2022-08-26T12:17:49.430Z,100.00
2022-08-26T12:20:45.702Z,100.00
2022-08-26T12:23:28.953Z,100.00
2022-08-26T12:26:05.837Z,100.00
2022-08-26T12:28:34.121Z,100.00
2022-08-26T12:31:06.653Z,100.00
2022-08-26T12:33:37.040Z,100.00
2022-08-26T12:36:06.087Z,100.00
2022-08-26T12:38:37.583Z,100.00
2022-08-26T12:41:05.544Z,100.00
2022-08-26T12:43:42.523Z,100.00
2022-08-26T12:46:15.410Z,100.00
2022-08-26T12:48:46.003Z,100.00
2022-08-26T12:51:24.105Z,100.00
2022-08-26T12:53:52.672Z,100.00
2022-08-26T12:56:29.739Z,100.00
2022-08-26T12:59:07.568Z,100.00
2022-08-26T13:01:43.658Z,100.00
2022-08-26T13:04:34.858Z,100.00
2022-08-26T13:07:21.132Z,100.00
2022-08-26T13:09:50.233Z,100.00
2022-08-26T13:12:29.555Z,100.00
2022-08-26T13:14:59.553Z,100.00
2022-08-26T13:17:30.316Z,100.00
2022-08-26T13:20:03.485Z,100.00
2022-08-26T13:22:32.584Z,100.00
2022-08-26T13:25:00.815Z,100.00
2022-08-26T13:27:29.095Z,100.00
2022-08-26T13:29:57.833Z,100.00
2022-08-26T13:32:28.215Z,100.00
2022-08-26T13:34:58.571Z,100.00
2022-08-26T13:37:34.883Z,100.00
2022-08-26T13:40:05.948Z,100.00
2022-08-26T13:42:34.527Z,100.00
2022-08-26T13:45:04.819Z,100.00
2022-08-26T13:47:33.921Z,100.00
2022-08-26T13:50:01.748Z,100.00
2022-08-26T13:52:30.581Z,100.00
2022-08-26T13:55:00.159Z,100.00
2022-08-26T13:57:28.435Z,100.00
2022-08-26T13:59:58.955Z,100.00
2022-08-26T14:02:27.346Z,100.00
2022-08-26T14:04:56.468Z,100.00
2022-08-26T14:07:24.440Z,100.00
2022-08-26T14:09:52.241Z,100.00
2022-08-26T14:12:19.926Z,100.00
2022-08-26T14:14:48.141Z,100.00
2022-08-26T14:17:19.363Z,100.00
2022-08-26T14:19:50.617Z,100.00
2022-08-26T14:22:22.400Z,100.00
2022-08-26T14:24:50.591Z,100.00
2022-08-26T14:27:18.329Z,100.00
2022-08-26T14:29:46.004Z,100.00
2022-08-26T14:32:21.692Z,100.00
2022-08-26T14:34:50.178Z,100.00
2022-08-26T14:37:20.120Z,100.00
2022-08-26T14:39:48.613Z,100.00
2022-08-26T14:42:21.179Z,100.00
2022-08-26T14:44:57.390Z,100.00
2022-08-26T14:47:25.297Z,100.00
2022-08-26T14:49:52.976Z,100.00
2022-08-26T14:52:22.007Z,100.00
2022-08-26T14:54:48.835Z,100.00
2022-08-26T14:57:22.605Z,100.00
2022-08-26T14:59:50.637Z,100.00
2022-08-26T15:02:32.713Z,100.00
2022-08-26T15:05:02.115Z,100.00
2022-08-26T15:07:31.178Z,100.00
2022-08-26T15:09:58.878Z,100.00
2022-08-26T15:12:26.699Z,100.00
2022-08-26T15:14:54.424Z,100.00
2022-08-26T15:17:22.073Z,100.00
2022-08-26T15:19:49.991Z,100.00
2022-08-26T15:22:17.788Z,100.00
2022-08-26T15:24:47.002Z,100.00
2022-08-26T15:27:19.571Z,100.00
2022-08-26T15:29:47.538Z,100.00
2022-08-26T15:32:15.512Z,100.00
2022-08-26T15:34:43.288Z,100.00
2022-08-26T15:37:11.010Z,100.00
2022-08-26T15:39:38.796Z,100.00
2022-08-26T15:42:08.419Z,100.00
2022-08-26T15:44:36.729Z,100.00
2022-08-26T15:47:04.684Z,100.00
2022-08-26T15:49:32.919Z,100.00
2022-08-26T15:52:02.765Z,100.00
2022-08-26T15:54:33.243Z,100.00
2022-08-26T15:57:02.530Z,100.00
2022-08-26T15:59:31.962Z,100.00
2022-08-26T16:02:00.335Z,100.00
2022-08-26T16:04:28.620Z,100.00
2022-08-26T16:06:56.353Z,100.00
2022-08-26T16:09:27.166Z,100.00
2022-08-26T16:11:55.836Z,100.00
2022-08-26T16:14:24.147Z,100.00
2022-08-26T16:16:53.919Z,100.00
2022-08-26T16:19:22.074Z,100.00
2022-08-26T16:21:51.403Z,100.00
2022-08-26T16:24:24.806Z,100.00
2022-08-26T16:26:54.576Z,100.00
2022-08-26T16:29:22.257Z,100.00
2022-08-26T16:31:53.180Z,100.00
2022-08-26T16:34:23.006Z,100.00
2022-08-26T16:36:50.866Z,100.00
2022-08-26T16:39:18.640Z,100.00
2022-08-26T16:41:46.293Z,100.00
2022-08-26T16:44:14.012Z,100.00
2022-08-26T16:46:41.800Z,100.00
2022-08-26T16:49:09.574Z,100.00
2022-08-26T16:51:38.728Z,100.00
2022-08-26T16:54:08.023Z,100.00
2022-08-26T16:56:36.176Z,100.00
2022-08-26T16:59:04.573Z,100.00
2022-08-26T17:01:32.343Z,100.00
2022-08-26T17:04:00.100Z,100.00
2022-08-26T17:06:27.826Z,100.00
2022-08-26T17:08:56.859Z,100.00
2022-08-26T17:11:24.586Z,100.00
2022-08-26T17:13:52.242Z,100.00
2022-08-26T17:16:23.338Z,100.00
2022-08-26T17:18:54.306Z,100.00
2022-08-26T17:21:22.079Z,100.00
2022-08-26T17:23:50.246Z,100.00
2022-08-26T17:26:19.384Z,100.00
2022-08-26T17:28:47.354Z,100.00
2022-08-26T17:31:15.135Z,100.00
2022-08-26T17:33:42.849Z,100.00
2022-08-26T17:36:11.265Z,100.00
2022-08-26T17:38:39.735Z,100.00
2022-08-26T17:41:08.996Z,100.00
2022-08-26T17:43:38.996Z,100.00
2022-08-26T17:46:08.717Z,100.00
2022-08-26T17:48:37.903Z,100.00
2022-08-26T17:51:08.529Z,100.00
2022-08-26T17:53:36.225Z,100.00
2022-08-26T17:56:06.940Z,100.00
2022-08-26T17:58:36.659Z,100.00
2022-08-26T18:01:06.703Z,100.00
2022-08-26T18:03:35.251Z,100.00
2022-08-26T18:06:04.011Z,100.00
2022-08-26T18:08:31.702Z,100.00
2022-08-26T18:10:59.810Z,100.00
2022-08-26T18:13:27.466Z,100.00
2022-08-26T18:15:55.264Z,100.00
2022-08-26T18:18:24.289Z,100.00
2022-08-26T18:20:54.110Z,100.00
2022-08-26T18:23:31.408Z,100.00
2022-08-26T18:25:59.342Z,100.00
2022-08-26T18:28:26.947Z,100.00
2022-08-26T18:30:54.621Z,100.00
2022-08-26T18:33:26.611Z,100.00
2022-08-26T18:35:54.292Z,100.00
2022-08-26T18:38:22.366Z,100.00
2022-08-26T18:40:50.242Z,100.00
2022-08-26T18:43:17.902Z,100.00
2022-08-26T18:45:45.932Z,100.00
2022-08-26T18:48:14.709Z,100.00
2022-08-26T18:50:47.318Z,100.00
2022-08-26T18:53:15.660Z,100.00
2022-08-26T18:55:43.421Z,100.00
2022-08-26T18:58:14.198Z,100.00
2022-08-26T19:00:41.906Z,100.00
2022-08-26T19:03:18.401Z,100.00
2022-08-26T19:05:48.083Z,100.00
2022-08-26T19:08:15.742Z,100.00
2022-08-26T19:10:43.520Z,100.00
2022-08-26T19:13:11.304Z,100.00
2022-08-26T19:15:40.177Z,100.00
2022-08-26T19:18:08.974Z,100.00
2022-08-26T19:20:42.426Z,100.00
2022-08-26T19:23:31.100Z,100.00
2022-08-26T19:26:03.052Z,100.00
2022-08-26T19:28:31.654Z,100.00
2022-08-26T19:30:59.810Z,100.00
2022-08-26T19:33:28.273Z,100.00
2022-08-26T19:35:56.102Z,100.00
2022-08-26T19:38:25.179Z,100.00
2022-08-26T19:40:55.460Z,100.00
2022-08-26T19:43:23.223Z,100.00
2022-08-26T19:45:51.005Z,100.00
2022-08-26T19:48:18.849Z,100.00
2022-08-26T19:50:47.411Z,100.00
2022-08-26T19:53:15.365Z,100.00
2022-08-26T19:55:44.375Z,100.00
2022-08-26T19:58:12.478Z,100.00
2022-08-26T20:00:42.313Z,100.00
2022-08-26T20:03:10.628Z,100.00
2022-08-26T20:05:42.460Z,100.00
2022-08-26T20:08:21.979Z,100.00
2022-08-26T20:10:52.460Z,100.00
2022-08-26T20:13:21.909Z,100.00
2022-08-26T20:15:49.547Z,100.00
2022-08-26T20:18:34.997Z,100.00
2022-08-26T20:21:20.480Z,100.00
2022-08-26T20:23:48.388Z,100.00
2022-08-26T20:26:17.385Z,100.00
2022-08-26T20:28:45.921Z,100.00
2022-08-26T20:31:15.612Z,100.00
2022-08-26T20:33:46.285Z,100.00
2022-08-26T20:36:16.067Z,100.00
2022-08-26T20:38:45.171Z,100.00
2022-08-26T20:41:13.300Z,100.00
2022-08-26T20:43:46.130Z,100.00
2022-08-26T20:46:18.134Z,100.00
2022-08-26T20:48:46.938Z,100.00
2022-08-26T20:51:14.723Z,100.00
2022-08-26T20:53:44.182Z,100.00
2022-08-26T20:56:13.597Z,100.00
2022-08-26T20:58:43.316Z,100.00
2022-08-26T21:01:18.986Z,100.00
2022-08-26T21:03:47.014Z,100.00
2022-08-26T21:06:14.956Z,100.00
2022-08-26T21:08:43.358Z,100.00
2022-08-26T21:11:12.305Z,100.00
2022-08-26T21:14:01.680Z,100.00
2022-08-26T21:16:29.811Z,100.00
2022-08-26T21:18:57.664Z,100.00
2022-08-26T21:21:28.836Z,100.00
2022-08-26T21:23:57.372Z,100.00
2022-08-26T21:26:25.514Z,100.00
2022-08-26T21:28:53.492Z,100.00
2022-08-26T21:31:23.903Z,100.00
2022-08-26T21:33:54.037Z,100.00
2022-08-26T21:36:21.951Z,100.00
2022-08-26T21:38:49.783Z,100.00
2022-08-26T21:41:21.909Z,100.00
2022-08-26T21:43:51.031Z,100.00
2022-08-26T21:46:22.065Z,100.00
2022-08-26T21:48:51.956Z,100.00
2022-08-26T21:51:23.150Z,100.00
2022-08-26T21:53:52.938Z,100.00
2022-08-26T21:56:22.162Z,100.00
2022-08-26T21:58:52.519Z,100.00
2022-08-26T22:01:23.369Z,100.00
2022-08-26T22:03:53.211Z,100.00
2022-08-26T22:06:28.829Z,100.00
2022-08-26T22:08:57.303Z,100.00
2022-08-26T22:11:26.053Z,100.00
2022-08-26T22:13:55.212Z,100.00
2022-08-26T22:16:23.103Z,100.00
2022-08-26T22:18:51.200Z,100.00
2022-08-26T22:21:23.854Z,100.00
2022-08-26T22:23:51.879Z,100.00
2022-08-26T22:26:31.713Z,100.00
2022-08-26T22:29:01.165Z,100.00
2022-08-26T22:31:36.902Z,100.00
2022-08-26T22:34:07.872Z,100.00
2022-08-26T22:36:42.696Z,100.00
2022-08-26T22:39:13.057Z,100.00
2022-08-26T22:41:41.311Z,100.00
2022-08-26T22:44:09.036Z,100.00
2022-08-26T22:46:38.658Z,100.00
2022-08-26T22:49:06.471Z,100.00
2022-08-26T22:51:34.612Z,100.00
2022-08-26T22:54:03.855Z,100.00
2022-08-26T22:56:31.875Z,100.00
2022-08-26T22:58:59.952Z,100.00
2022-08-26T23:01:31.266Z,100.00
2022-08-26T23:03:59.074Z,100.00
2022-08-26T23:06:26.963Z,100.00
2022-08-26T23:08:54.635Z,100.00
2022-08-26T23:11:23.782Z,100.00
2022-08-26T23:13:51.509Z,100.00
2022-08-26T23:16:19.297Z,100.00
2022-08-26T23:18:47.094Z,100.00
2022-08-26T23:21:15.208Z,100.00
2022-08-26T23:23:44.330Z,100.00
2022-08-26T23:26:17.418Z,100.00
2022-08-26T23:28:47.087Z,100.00
2022-08-26T23:31:15.342Z,100.00
2022-08-26T23:34:00.602Z,100.00
2022-08-26T23:36:30.796Z,100.00
2022-08-26T23:39:00.004Z,100.00
2022-08-26T23:41:28.383Z,100.00
2022-08-26T23:44:01.592Z,100.00
2022-08-26T23:46:31.317Z,100.00
2022-08-26T23:48:59.126Z,100.00
2022-08-26T23:51:46.952Z,100.00
2022-08-26T23:54:16.808Z,100.00
2022-08-26T23:56:44.822Z,100.00
2022-08-26T23:59:14.263Z,100.00
